createdAt,value
2023-02-19T00:00:13.504Z,18.08
2023-02-19T00:02:51.874Z,14.13
2023-02-19T00:05:26.618Z,19.20
2023-02-19T00:08:01.066Z,15.95
2023-02-19T00:10:35.271Z,15.05
2023-02-19T00:13:10.088Z,12.65
2023-02-19T00:15:46.126Z,15.80
2023-02-19T00:18:20.618Z,17.67
2023-02-19T00:20:55.614Z,18.83
2023-02-19T00:23:30.904Z,18.77
2023-02-19T00:26:17.490Z,14.52
2023-02-19T00:28:53.817Z,15.32
2023-02-19T00:31:33.972Z,15.00
2023-02-19T00:34:11.109Z,22.65
2023-02-19T00:36:46.287Z,11.80
2023-02-19T00:39:21.287Z,18.02
2023-02-19T00:41:58.437Z,20.92
2023-02-19T00:44:33.654Z,14.90
2023-02-19T00:47:10.056Z,18.08
2023-02-19T00:49:46.293Z,13.82
2023-02-19T00:52:21.102Z,17.38
2023-02-19T00:54:55.895Z,16.75
2023-02-19T00:57:30.067Z,16.23
2023-02-19T01:00:04.897Z,14.10
2023-02-19T01:02:41.056Z,15.77
2023-02-19T01:05:15.944Z,19.00
2023-02-19T01:07:50.750Z,18.80
2023-02-19T01:10:26.214Z,17.23
2023-02-19T01:13:00.356Z,14.98
2023-02-19T01:15:35.664Z,17.73
2023-02-19T01:18:11.906Z,13.93
2023-02-19T01:20:47.106Z,17.17
2023-02-19T01:23:22.202Z,21.85
2023-02-19T01:25:57.695Z,14.35
2023-02-19T01:28:32.137Z,17.10
2023-02-19T01:31:08.198Z,14.88
2023-02-19T01:33:45.020Z,14.82
2023-02-19T01:36:20.706Z,14.98
2023-02-19T01:38:55.706Z,16.02
2023-02-19T01:41:31.428Z,15.52
2023-02-19T01:44:07.233Z,18.02
2023-02-19T01:46:44.981Z,19.00
2023-02-19T01:49:23.948Z,15.60
2023-02-19T01:52:02.236Z,15.93
2023-02-19T01:54:41.469Z,15.15
2023-02-19T01:57:18.194Z,12.38
2023-02-19T01:59:56.810Z,18.23
2023-02-19T02:02:31.275Z,16.00
2023-02-19T02:05:09.781Z,18.48
2023-02-19T02:08:00.887Z,16.35
2023-02-19T02:10:35.521Z,16.85
2023-02-19T02:13:10.036Z,16.77
2023-02-19T02:15:49.120Z,15.25
2023-02-19T02:18:27.589Z,17.42
2023-02-19T02:21:17.001Z,13.27
2023-02-19T02:23:58.873Z,16.80
2023-02-19T02:26:46.021Z,18.95
2023-02-19T02:29:39.149Z,13.48
2023-02-19T02:32:17.015Z,15.82
2023-02-19T02:34:53.650Z,15.45
2023-02-19T02:37:29.382Z,15.50
2023-02-19T02:40:04.995Z,13.13
2023-02-19T02:42:40.495Z,17.00
2023-02-19T02:45:41.825Z,15.40
2023-02-19T02:48:42.205Z,19.25
2023-02-19T02:51:21.240Z,16.55
2023-02-19T02:54:25.356Z,18.27
2023-02-19T02:57:01.492Z,16.48
2023-02-19T02:59:42.336Z,15.75
2023-02-19T03:02:20.626Z,16.20
2023-02-19T03:05:24.210Z,14.70
2023-02-19T03:08:01.326Z,14.70
2023-02-19T03:10:38.570Z,15.25
2023-02-19T03:13:31.479Z,13.27
2023-02-19T03:16:24.090Z,14.30
2023-02-19T03:19:27.579Z,12.38
2023-02-19T03:22:05.268Z,11.40
2023-02-19T03:24:57.314Z,15.52
2023-02-19T03:27:33.738Z,15.02
2023-02-19T03:30:10.328Z,14.63
2023-02-19T03:32:46.068Z,16.38
2023-02-19T03:35:23.909Z,14.23
2023-02-19T03:38:08.956Z,20.63
2023-02-19T03:40:49.173Z,15.30
2023-02-19T03:43:26.558Z,16.77
2023-02-19T03:46:05.557Z,13.80
2023-02-19T03:48:40.738Z,13.98
2023-02-19T03:51:25.987Z,14.35
2023-02-19T03:54:07.429Z,16.20
2023-02-19T03:56:46.158Z,16.52
2023-02-19T03:59:22.654Z,12.40
2023-02-19T04:01:59.213Z,14.45
2023-02-19T04:04:35.623Z,16.38
2023-02-19T04:07:14.169Z,11.82
2023-02-19T04:09:52.608Z,16.92
2023-02-19T04:12:30.464Z,14.45
2023-02-19T04:15:07.096Z,18.40
2023-02-19T04:17:43.483Z,14.20
2023-02-19T04:20:19.003Z,15.15
2023-02-19T04:22:53.949Z,16.23
2023-02-19T04:25:31.611Z,14.13
2023-02-19T04:28:07.098Z,12.68
2023-02-19T04:30:41.751Z,16.35
2023-02-19T04:33:17.379Z,11.82
2023-02-19T04:35:52.248Z,16.52
2023-02-19T04:38:27.392Z,16.88
2023-02-19T04:41:03.809Z,17.38
2023-02-19T04:43:39.537Z,16.60
2023-02-19T04:46:14.132Z,13.93
2023-02-19T04:48:49.372Z,12.82
2023-02-19T04:51:23.714Z,14.25
2023-02-19T04:53:59.681Z,11.82
2023-02-19T04:56:36.253Z,18.15
2023-02-19T04:59:12.030Z,13.70
2023-02-19T05:01:46.770Z,15.45
2023-02-19T05:04:22.887Z,17.80
2023-02-19T05:06:57.207Z,14.98
2023-02-19T05:09:32.210Z,18.33
2023-02-19T05:12:08.918Z,16.50
2023-02-19T05:14:44.521Z,17.25
2023-02-19T05:17:18.902Z,14.88
2023-02-19T05:19:53.886Z,15.75
2023-02-19T05:22:28.221Z,16.95
2023-02-19T05:25:02.992Z,16.95
2023-02-19T05:27:40.133Z,14.82
2023-02-19T05:30:16.222Z,17.50
2023-02-19T05:32:50.513Z,14.75
2023-02-19T05:35:25.345Z,15.60
2023-02-19T05:37:59.952Z,15.77
2023-02-19T05:40:34.907Z,16.40
2023-02-19T05:43:11.081Z,17.92
2023-02-19T05:45:46.373Z,17.70
2023-02-19T05:48:20.978Z,17.17
2023-02-19T05:50:56.229Z,15.30
2023-02-19T05:53:31.619Z,17.98
2023-02-19T05:56:07.753Z,18.33
2023-02-19T05:58:45.115Z,14.52
2023-02-19T06:01:23.842Z,14.27
2023-02-19T06:03:59.519Z,17.88
2023-02-19T06:06:35.677Z,15.60
2023-02-19T06:09:12.660Z,16.75
2023-02-19T06:11:47.346Z,16.20
2023-02-19T06:14:23.629Z,16.98
2023-02-19T06:16:58.870Z,16.52
2023-02-19T06:19:33.012Z,14.52
2023-02-19T06:22:07.940Z,17.33
2023-02-19T06:24:43.039Z,15.73
2023-02-19T06:27:19.067Z,16.13
2023-02-19T06:29:56.328Z,15.13
2023-02-19T06:32:32.670Z,17.35
2023-02-19T06:35:08.012Z,19.42
2023-02-19T06:37:43.774Z,15.50
2023-02-19T06:40:19.266Z,16.30
2023-02-19T06:42:55.113Z,15.88
2023-02-19T06:45:32.181Z,15.73
2023-02-19T06:48:08.370Z,17.15
2023-02-19T06:50:43.471Z,15.73
2023-02-19T06:53:19.558Z,15.23
2023-02-19T06:56:02.283Z,17.60
2023-02-19T06:58:38.595Z,15.48
2023-02-19T07:01:17.289Z,19.88
2023-02-19T07:03:56.694Z,17.58
2023-02-19T07:06:33.570Z,18.55
2023-02-19T07:09:09.327Z,14.82
2023-02-19T07:11:44.367Z,17.60
2023-02-19T07:14:22.802Z,14.50
2023-02-19T07:16:59.812Z,14.75
2023-02-19T07:19:37.917Z,17.10
2023-02-19T07:22:15.122Z,18.73
2023-02-19T07:24:51.666Z,19.95
2023-02-19T07:27:27.824Z,18.33
2023-02-19T07:30:02.801Z,16.02
2023-02-19T07:32:38.908Z,16.73
2023-02-19T07:35:14.606Z,19.20
2023-02-19T07:37:48.787Z,20.83
2023-02-19T07:40:23.844Z,20.55
2023-02-19T07:42:57.977Z,18.63
2023-02-19T07:45:33.221Z,19.00
2023-02-19T07:48:09.628Z,19.38
2023-02-19T07:50:45.032Z,16.52
2023-02-19T07:53:19.493Z,16.65
2023-02-19T07:55:54.645Z,19.75
2023-02-19T07:58:32.119Z,16.38
2023-02-19T08:01:14.677Z,13.90
2023-02-19T08:03:50.567Z,15.48
2023-02-19T08:06:27.639Z,18.67
2023-02-19T08:09:02.768Z,14.98
2023-02-19T08:11:54.380Z,17.33
2023-02-19T08:14:31.265Z,22.65
2023-02-19T08:17:07.291Z,19.90
2023-02-19T08:19:44.438Z,23.88
2023-02-19T08:22:20.353Z,20.13
2023-02-19T08:24:55.327Z,15.68
2023-02-19T08:27:31.458Z,20.52
2023-02-19T08:30:06.222Z,22.17
2023-02-19T08:32:41.476Z,21.40
2023-02-19T08:35:18.480Z,20.08
2023-02-19T08:37:54.627Z,20.23
2023-02-19T08:40:30.363Z,16.67
2023-02-19T08:43:09.030Z,20.77
2023-02-19T08:45:45.077Z,20.40
2023-02-19T08:48:21.737Z,19.83
2023-02-19T08:51:05.314Z,20.30
2023-02-19T08:53:41.605Z,18.23
2023-02-19T08:56:16.989Z,18.77
2023-02-19T08:58:53.016Z,20.25
2023-02-19T09:01:27.884Z,18.23
2023-02-19T09:04:03.329Z,18.92
2023-02-19T09:06:40.302Z,21.45
2023-02-19T09:09:16.674Z,16.95
2023-02-19T09:11:51.645Z,17.77
2023-02-19T09:14:26.856Z,18.38
2023-02-19T09:17:01.769Z,16.33
2023-02-19T09:19:38.308Z,17.63
2023-02-19T09:22:17.114Z,21.63
2023-02-19T09:24:53.237Z,14.38
2023-02-19T09:27:30.509Z,17.58
2023-02-19T09:30:06.927Z,19.92
2023-02-19T09:32:43.299Z,16.38
2023-02-19T09:35:18.575Z,19.15
2023-02-19T09:37:55.497Z,18.15
2023-02-19T09:40:33.679Z,19.17
2023-02-19T09:43:13.336Z,16.80
2023-02-19T09:45:47.960Z,17.70
2023-02-19T09:48:24.501Z,18.85
2023-02-19T09:51:05.395Z,17.00
2023-02-19T09:53:47.740Z,16.05
2023-02-19T09:56:25.769Z,17.88
2023-02-19T09:59:02.732Z,17.90
2023-02-19T10:01:42.606Z,20.02
2023-02-19T10:04:17.168Z,17.33
2023-02-19T10:06:51.823Z,19.65
2023-02-19T10:09:30.672Z,19.38
2023-02-19T10:12:09.908Z,16.10
2023-02-19T10:14:47.037Z,19.58
2023-02-19T10:17:27.231Z,22.23
2023-02-19T10:20:02.261Z,17.27
2023-02-19T10:22:38.579Z,20.45
2023-02-19T10:25:21.745Z,15.10
2023-02-19T10:27:58.951Z,15.68
2023-02-19T10:30:35.022Z,12.15
2023-02-19T10:33:14.302Z,16.02
2023-02-19T10:35:58.225Z,14.75
2023-02-19T10:38:34.544Z,18.35
2023-02-19T10:41:12.764Z,17.42
2023-02-19T10:43:51.483Z,17.08
2023-02-19T10:46:27.041Z,22.38
2023-02-19T10:49:02.580Z,18.92
2023-02-19T10:51:37.819Z,19.55
2023-02-19T10:54:14.450Z,19.30
2023-02-19T10:56:50.682Z,19.45
2023-02-19T10:59:29.670Z,18.13
2023-02-19T11:02:04.483Z,16.80
2023-02-19T11:04:40.099Z,16.02
2023-02-19T11:07:14.981Z,19.20
2023-02-19T11:09:50.154Z,20.45
2023-02-19T11:12:30.828Z,19.05
2023-02-19T11:15:25.634Z,17.98
2023-02-19T11:18:00.509Z,18.27
2023-02-19T11:20:34.913Z,17.98
2023-02-19T11:23:11.778Z,16.85
2023-02-19T11:25:51.038Z,18.90
2023-02-19T11:28:35.037Z,21.98
2023-02-19T11:31:20.473Z,16.65
2023-02-19T11:33:59.331Z,22.30
2023-02-19T11:36:35.786Z,17.17
2023-02-19T11:39:24.122Z,15.48
2023-02-19T11:42:16.115Z,18.77
2023-02-19T11:44:56.855Z,16.48
2023-02-19T11:47:43.414Z,17.08
2023-02-19T11:50:22.906Z,17.90
2023-02-19T11:53:01.516Z,23.92
2023-02-19T11:55:41.383Z,17.42
2023-02-19T11:58:23.882Z,18.98
2023-02-19T12:01:01.108Z,19.75
2023-02-19T12:03:43.738Z,24.33
2023-02-19T12:06:23.489Z,18.13
2023-02-19T12:09:15.602Z,14.95
2023-02-19T12:11:57.235Z,19.70
2023-02-19T12:14:49.307Z,17.45
2023-02-19T12:17:33.812Z,15.95
2023-02-19T12:20:16.827Z,14.65
2023-02-19T12:22:56.540Z,21.17
2023-02-19T12:25:45.240Z,17.88
2023-02-19T12:28:29.441Z,18.27
2023-02-19T12:31:25.539Z,14.40
2023-02-19T12:34:13.948Z,16.42
2023-02-19T12:36:57.837Z,14.75
2023-02-19T12:39:38.938Z,14.85
2023-02-19T12:42:17.571Z,18.90
2023-02-19T12:44:52.914Z,17.33
2023-02-19T12:47:29.161Z,14.05
2023-02-19T12:50:08.633Z,17.00
2023-02-19T12:52:47.120Z,16.92
2023-02-19T12:55:24.418Z,14.90
2023-02-19T12:57:59.957Z,20.73
2023-02-19T13:00:36.395Z,15.70
2023-02-19T13:03:19.322Z,16.73
2023-02-19T13:05:56.063Z,19.50
2023-02-19T13:08:35.602Z,18.13
2023-02-19T13:11:14.608Z,16.10
2023-02-19T13:13:50.700Z,14.57
2023-02-19T13:16:27.115Z,13.43
2023-02-19T13:19:03.614Z,19.13
2023-02-19T13:21:55.859Z,16.27
2023-02-19T13:24:34.039Z,19.05
2023-02-19T13:27:13.677Z,18.90
2023-02-19T13:29:55.600Z,17.83
2023-02-19T13:32:42.177Z,18.20
2023-02-19T13:35:24.932Z,18.20
2023-02-19T13:38:00.002Z,15.52
2023-02-19T13:40:38.345Z,15.45
2023-02-19T13:43:13.627Z,20.25
2023-02-19T13:45:50.765Z,17.88
2023-02-19T13:48:31.644Z,14.68
2023-02-19T13:51:24.823Z,19.33
2023-02-19T13:54:03.569Z,18.17
2023-02-19T13:56:47.402Z,18.90
2023-02-19T13:59:29.693Z,18.50
2023-02-19T14:02:19.408Z,16.38
2023-02-19T14:04:56.223Z,17.85
2023-02-19T14:07:48.743Z,15.70
2023-02-19T14:10:40.598Z,16.02
2023-02-19T14:13:16.896Z,14.25
2023-02-19T14:15:54.818Z,18.20
2023-02-19T14:18:52.096Z,13.80
2023-02-19T14:21:29.537Z,18.92
2023-02-19T14:24:04.144Z,16.40
2023-02-19T14:26:39.129Z,16.40
2023-02-19T14:29:19.548Z,17.13
2023-02-19T14:31:54.438Z,18.73
2023-02-19T14:34:29.574Z,17.52
2023-02-19T14:37:08.483Z,16.95
2023-02-19T14:39:43.965Z,17.33
2023-02-19T14:42:21.080Z,14.02
2023-02-19T14:44:59.765Z,16.70
2023-02-19T14:47:37.088Z,17.40
2023-02-19T14:50:14.912Z,16.67
2023-02-19T14:52:50.938Z,16.10
2023-02-19T14:55:28.812Z,16.88
2023-02-19T14:58:05.048Z,19.05
2023-02-19T15:00:43.224Z,18.20
2023-02-19T15:03:32.021Z,18.92
2023-02-19T15:06:10.376Z,15.98
2023-02-19T15:08:49.385Z,16.75
2023-02-19T15:11:26.434Z,17.60
2023-02-19T15:14:02.441Z,18.35
2023-02-19T15:16:40.544Z,14.43
2023-02-19T15:19:17.559Z,15.25
2023-02-19T15:21:53.871Z,16.35
2023-02-19T15:24:29.914Z,16.92
2023-02-19T15:27:04.312Z,15.55
2023-02-19T15:29:38.890Z,18.00
2023-02-19T15:32:23.585Z,16.90
2023-02-19T15:35:01.766Z,17.02
2023-02-19T15:37:37.941Z,18.40
2023-02-19T15:40:12.804Z,16.80
2023-02-19T15:42:50.119Z,17.10
2023-02-19T15:45:26.982Z,15.80
2023-02-19T15:48:04.990Z,15.30
2023-02-19T15:50:40.883Z,17.33
2023-02-19T15:53:19.684Z,18.45
2023-02-19T15:56:06.085Z,13.50
2023-02-19T15:58:44.387Z,17.98
2023-02-19T16:01:21.110Z,17.85
2023-02-19T16:03:58.437Z,12.32
2023-02-19T16:06:33.325Z,19.38
2023-02-19T16:09:09.852Z,13.98
2023-02-19T16:11:45.060Z,15.60
2023-02-19T16:14:29.372Z,15.05
2023-02-19T16:17:05.793Z,13.00
2023-02-19T16:19:49.100Z,12.95
2023-02-19T16:22:24.350Z,14.13
2023-02-19T16:25:00.676Z,15.57
2023-02-19T16:27:36.017Z,17.65
2023-02-19T16:30:13.179Z,14.35
2023-02-19T16:32:48.572Z,13.75
2023-02-19T16:35:37.512Z,12.70
2023-02-19T16:38:19.135Z,12.85
2023-02-19T16:41:02.998Z,12.75
2023-02-19T16:43:43.947Z,13.18
2023-02-19T16:46:19.179Z,15.82
2023-02-19T16:48:54.179Z,15.57
2023-02-19T16:51:30.702Z,15.07
2023-02-19T16:54:07.519Z,13.60
2023-02-19T16:56:43.046Z,13.13
2023-02-19T16:59:18.097Z,13.30
2023-02-19T17:01:53.308Z,13.82
2023-02-19T17:04:28.152Z,15.73
2023-02-19T17:07:03.437Z,16.30
2023-02-19T17:09:39.945Z,16.38
2023-02-19T17:12:19.718Z,12.32
2023-02-19T17:14:53.872Z,13.65
2023-02-19T17:17:28.706Z,13.05
2023-02-19T17:20:02.879Z,12.77
2023-02-19T17:22:37.404Z,12.70
2023-02-19T17:25:13.664Z,10.80
2023-02-19T17:27:49.259Z,12.77
2023-02-19T17:30:24.990Z,12.95
2023-02-19T17:32:59.998Z,14.68
2023-02-19T17:35:34.356Z,16.05
2023-02-19T17:38:11.418Z,12.40
2023-02-19T17:40:47.973Z,14.63
2023-02-19T17:43:25.202Z,14.38
2023-02-19T17:45:59.866Z,11.82
2023-02-19T17:48:35.413Z,14.80
2023-02-19T17:51:10.181Z,15.75
2023-02-19T17:53:45.275Z,13.75
2023-02-19T17:56:23.693Z,11.77
2023-02-19T17:59:00.135Z,13.65
2023-02-19T18:01:35.076Z,12.45
2023-02-19T18:04:09.800Z,16.70
2023-02-19T18:06:44.337Z,15.18
2023-02-19T18:09:21.000Z,16.25
2023-02-19T18:11:57.567Z,14.27
2023-02-19T18:14:33.018Z,18.73
2023-02-19T18:17:07.048Z,13.32
2023-02-19T18:19:41.917Z,10.38
2023-02-19T18:22:16.653Z,14.80
2023-02-19T18:24:52.031Z,15.57
2023-02-19T18:27:28.300Z,14.77
2023-02-19T18:30:04.077Z,14.45
2023-02-19T18:32:38.804Z,11.95
2023-02-19T18:35:13.954Z,9.75
2023-02-19T18:37:48.332Z,12.95
2023-02-19T18:40:23.875Z,14.25
2023-02-19T18:43:00.481Z,9.80
2023-02-19T18:45:37.770Z,12.40
2023-02-19T18:48:12.225Z,12.65
2023-02-19T18:50:47.585Z,17.30
2023-02-19T18:53:22.296Z,11.40
2023-02-19T18:55:57.068Z,13.68
2023-02-19T18:58:33.331Z,10.27
2023-02-19T19:01:09.111Z,12.20
2023-02-19T19:03:43.992Z,11.70
2023-02-19T19:06:18.647Z,15.68
2023-02-19T19:08:53.631Z,11.43
2023-02-19T19:11:31.694Z,13.55
2023-02-19T19:14:08.227Z,10.80
2023-02-19T19:16:43.912Z,12.75
2023-02-19T19:19:18.431Z,13.82
2023-02-19T19:21:56.404Z,11.27
2023-02-19T19:24:31.145Z,18.65
2023-02-19T19:27:05.871Z,9.07
2023-02-19T19:29:42.332Z,12.45
2023-02-19T19:32:18.549Z,11.13
2023-02-19T19:34:53.198Z,11.82
2023-02-19T19:37:28.605Z,12.00
2023-02-19T19:40:03.160Z,12.48
2023-02-19T19:42:38.593Z,10.48
2023-02-19T19:45:15.665Z,11.38
2023-02-19T19:47:51.086Z,12.70
2023-02-19T19:50:25.762Z,11.55
2023-02-19T19:53:01.224Z,10.38
2023-02-19T19:55:35.818Z,10.43
2023-02-19T19:58:10.692Z,14.10
2023-02-19T20:00:46.969Z,11.93
2023-02-19T20:03:23.037Z,16.30
2023-02-19T20:05:57.760Z,12.77
2023-02-19T20:08:32.578Z,13.18
2023-02-19T20:11:07.428Z,8.20
2023-02-19T20:13:42.603Z,11.88
2023-02-19T20:16:19.242Z,13.18
2023-02-19T20:18:54.761Z,11.38
2023-02-19T20:21:29.252Z,13.85
2023-02-19T20:24:05.217Z,12.05
2023-02-19T20:26:39.736Z,12.75
2023-02-19T20:29:14.135Z,13.13
2023-02-19T20:31:55.141Z,12.38
2023-02-19T20:34:30.714Z,8.55
2023-02-19T20:37:05.414Z,10.55
2023-02-19T20:39:40.913Z,9.70
2023-02-19T20:42:16.741Z,8.38
2023-02-19T20:44:56.924Z,9.05
2023-02-19T20:47:33.585Z,9.23
2023-02-19T20:50:08.526Z,12.05
2023-02-19T20:52:43.558Z,11.40
2023-02-19T20:55:18.849Z,10.35
2023-02-19T20:57:54.331Z,11.10
2023-02-19T21:00:28.918Z,8.52
2023-02-19T21:03:05.651Z,9.75
2023-02-19T21:05:41.578Z,11.50
2023-02-19T21:08:16.700Z,7.28
2023-02-19T21:10:51.269Z,8.20
2023-02-19T21:13:26.119Z,9.55
2023-02-19T21:16:01.181Z,9.00
2023-02-19T21:18:37.608Z,9.20
2023-02-19T21:21:12.576Z,8.65
2023-02-19T21:23:47.116Z,9.75
2023-02-19T21:26:21.852Z,9.02
2023-02-19T21:28:56.291Z,9.65
2023-02-19T21:31:30.524Z,9.82
2023-02-19T21:34:08.778Z,10.88
2023-02-19T21:36:44.673Z,7.93
2023-02-19T21:39:22.335Z,8.98
2023-02-19T21:42:00.296Z,8.70
2023-02-19T21:44:37.717Z,8.00
2023-02-19T21:47:13.030Z,7.85
2023-02-19T21:49:50.503Z,14.80
2023-02-19T21:52:28.492Z,8.25
2023-02-19T21:55:04.112Z,8.65
2023-02-19T21:57:40.464Z,10.40
2023-02-19T22:00:16.387Z,8.35
2023-02-19T22:02:51.964Z,10.75
2023-02-19T22:05:29.650Z,12.85
2023-02-19T22:08:05.761Z,11.57
2023-02-19T22:10:42.499Z,8.77
2023-02-19T22:13:17.839Z,8.90
2023-02-19T22:15:52.862Z,8.05
2023-02-19T22:18:28.730Z,9.68
2023-02-19T22:21:04.936Z,8.30
2023-02-19T22:23:39.775Z,10.10
2023-02-19T22:26:14.283Z,10.88
2023-02-19T22:28:49.590Z,9.35
2023-02-19T22:31:24.819Z,11.15
2023-02-19T22:33:59.496Z,9.07
2023-02-19T22:36:38.614Z,9.63
2023-02-19T22:39:19.302Z,9.52
2023-02-19T22:41:53.500Z,9.70
2023-02-19T22:44:27.717Z,11.43
2023-02-19T22:47:02.209Z,9.93
2023-02-19T22:49:37.534Z,8.05
2023-02-19T22:52:15.102Z,12.60
2023-02-19T22:54:50.960Z,13.35
2023-02-19T22:57:25.728Z,12.38
2023-02-19T23:00:01.148Z,13.05
2023-02-19T23:02:35.533Z,11.25
2023-02-19T23:05:09.961Z,9.77
2023-02-19T23:07:47.472Z,11.00
2023-02-19T23:10:23.154Z,9.30
2023-02-19T23:12:57.605Z,10.48
2023-02-19T23:15:31.857Z,10.38
2023-02-19T23:18:07.917Z,10.82
2023-02-19T23:20:43.096Z,12.63
2023-02-19T23:23:19.257Z,12.73
2023-02-19T23:25:54.162Z,11.25
2023-02-19T23:28:29.008Z,10.93
2023-02-19T23:31:04.057Z,10.00
2023-02-19T23:33:39.205Z,9.75
2023-02-19T23:36:14.426Z,11.18
2023-02-19T23:38:51.636Z,15.95
2023-02-19T23:41:26.963Z,11.88
2023-02-19T23:44:01.407Z,8.75
2023-02-19T23:46:36.066Z,13.70
2023-02-19T23:49:10.236Z,8.02
2023-02-19T23:51:45.037Z,10.82
2023-02-19T23:54:21.497Z,9.10
2023-02-19T23:56:56.615Z,11.10
2023-02-19T23:59:30.838Z,8.27
